Time;durP1;ratioP1;P1;durP2;ratioP2;P2;SDS_P1;SDS_P2;PMS_P1;PMS_P2;Temp;Humidity;BMP_temperature;BMP_pressure;BME280_temperature;BME280_humidity;BME280_pressure;Samples;Min_cycle;Max_cycle;Signal;HPM_P1;HPM_P2
2022/03/16 00:01:45;;;;;;;48.00;21.60;;;;;;;3.69;98.27;100924.70;104550;1276;66727;-72
2022/03/16 00:04:37;;;;;;;55.50;24.20;;;;;;;3.66;98.07;100924.82;104601;1276;73392;-74
2022/03/16 00:07:26;;;;;;;56.20;24.30;;;;;;;3.67;98.12;100922.50;104662;1276;59315;-74
2022/03/16 00:10:14;;;;;;;53.80;25.00;;;;;;;3.68;98.14;100921.60;104636;1277;59959;-74
2022/03/16 00:13:06;;;;;;;52.90;24.30;;;;;;;3.71;98.37;100915.70;104630;1276;71448;-73
2022/03/16 00:15:54;;;;;;;53.20;25.10;;;;;;;3.69;98.45;100906.27;104758;1276;66879;-73
2022/03/16 00:18:44;;;;;;;54.80;24.00;;;;;;;3.77;98.57;100908.64;104485;1276;72164;-73
2022/03/16 00:21:34;;;;;;;54.40;23.40;;;;;;;3.80;98.95;100901.17;104471;1277;59304;-73
2022/03/16 00:24:24;;;;;;;55.80;25.50;;;;;;;3.83;98.57;100905.95;104366;1279;59414;-73
2022/03/16 00:27:17;;;;;;;57.90;26.40;;;;;;;3.83;98.78;100899.99;104621;1276;72797;-72
2022/03/16 00:30:07;;;;;;;54.20;24.60;;;;;;;3.90;98.94;100902.52;104767;1273;67447;-73
2022/03/16 00:32:57;;;;;;;52.30;23.40;;;;;;;3.94;98.91;100901.52;104996;1274;72839;-74
2022/03/16 00:35:45;;;;;;;52.70;23.50;;;;;;;3.95;98.60;100899.95;104824;1274;59455;-72
2022/03/16 00:38:34;;;;;;;49.80;22.80;;;;;;;3.95;98.64;100895.86;104786;1273;61077;-73
2022/03/16 00:41:23;;;;;;;48.30;23.60;;;;;;;3.96;98.58;100895.14;104846;1273;72500;-72
2022/03/16 00:44:11;;;;;;;42.00;20.30;;;;;;;3.95;98.68;100885.52;104773;1273;66777;-72
2022/03/16 00:47:01;;;;;;;41.90;19.10;;;;;;;3.93;98.56;100887.33;104610;1273;72042;-72
2022/03/16 00:49:50;;;;;;;47.30;22.10;;;;;;;3.90;98.54;100891.33;104602;1273;59298;-73
2022/03/16 00:52:39;;;;;;;50.50;23.70;;;;;;;3.87;98.56;100892.13;104967;1274;61059;-72
2022/03/16 00:55:31;;;;;;;49.80;23.40;;;;;;;3.88;98.71;100891.20;104588;1273;71112;-72
2022/03/16 00:58:19;;;;;;;58.80;25.50;;;;;;;3.89;98.90;100885.03;104731;1273;68279;-73
2022/03/16 01:01:09;;;;;;;53.50;23.50;;;;;;;3.92;98.92;100888.96;104725;1273;73068;-72
2022/03/16 01:03:58;;;;;;;56.70;25.10;;;;;;;3.94;98.93;100889.42;104753;1274;59882;-72
2022/03/16 01:06:46;;;;;;;52.40;24.40;;;;;;;3.96;98.91;100882.33;104662;1273;60353;-72
2022/03/16 01:09:35;;;;;;;55.70;23.50;;;;;;;3.98;98.94;100881.71;104857;1273;71614;-72
2022/03/16 01:12:24;;;;;;;50.10;23.60;;;;;;;3.99;98.75;100879.04;104651;1276;68343;-72
2022/03/16 01:15:13;;;;;;;50.80;23.90;;;;;;;3.99;98.91;100875.70;104585;1276;72023;-73
2022/03/16 01:18:03;;;;;;;58.30;24.80;;;;;;;4.00;98.89;100877.25;104454;1276;59489;-73
2022/03/16 01:20:52;;;;;;;54.90;23.50;;;;;;;4.03;99.18;100873.62;104435;1276;60224;-72
2022/03/16 01:23:41;;;;;;;53.20;23.40;;;;;;;4.09;99.04;100879.55;104385;1280;71948;-73
2022/03/16 01:26:30;;;;;;;47.00;21.40;;;;;;;4.13;98.89;100879.77;104443;1276;67337;-73
2022/03/16 01:29:19;;;;;;;46.10;22.20;;;;;;;4.14;98.49;100877.27;104464;1276;72943;-73
2022/03/16 01:32:10;;;;;;;49.00;22.40;;;;;;;4.15;98.30;100875.11;103711;1276;1003086;-73
2022/03/16 01:35:00;;;;;;;48.90;22.20;;;;;;;4.14;98.10;100872.52;104519;1277;60816;-73
2022/03/16 01:37:49;;;;;;;50.90;22.20;;;;;;;4.13;98.12;100874.12;105034;1276;72754;-73
2022/03/16 01:40:38;;;;;;;55.40;25.20;;;;;;;4.13;97.91;100869.60;104622;1276;68701;-73
2022/03/16 01:43:27;;;;;;;58.50;25.20;;;;;;;4.14;98.04;100872.19;104509;1279;71914;-72
2022/03/16 01:46:24;;;;;;;55.70;23.50;;;;;;;4.16;98.28;100876.13;104475;1276;59995;-74
2022/03/16 01:49:16;;;;;;;56.20;25.70;;;;;;;4.19;98.15;100874.10;104696;1273;59516;-74
2022/03/16 01:52:09;;;;;;;52.20;24.00;;;;;;;4.21;98.19;100877.14;105071;1274;71987;-73
2022/03/16 01:55:02;;;;;;;51.60;23.70;;;;;;;4.23;97.89;100875.48;104808;1274;67427;-73
2022/03/16 01:57:57;;;;;;;55.40;23.90;;;;;;;4.24;97.47;100876.33;105063;1274;72698;-72
2022/03/16 02:00:47;;;;;;;43.50;19.10;;;;;;;4.27;97.77;100874.48;104836;1273;59324;-72
2022/03/16 02:03:37;;;;;;;47.90;22.90;;;;;;;4.26;97.52;100876.80;104866;1274;60305;-73
2022/03/16 02:06:27;;;;;;;53.00;24.50;;;;;;;4.26;97.50;100877.33;104740;1274;71265;-71
2022/03/16 02:09:16;;;;;;;53.40;24.60;;;;;;;4.24;97.34;100874.73;104899;1274;66135;-73
2022/03/16 02:12:09;;;;;;;45.30;20.60;;;;;;;4.24;97.37;100879.16;105107;1274;72967;-73
2022/03/16 02:14:59;;;;;;;50.50;22.60;;;;;;;4.23;97.29;100878.66;104848;1273;59349;-73
2022/03/16 02:17:50;;;;;;;53.00;24.30;;;;;;;4.22;96.98;100883.44;104716;1273;60549;-74
2022/03/16 02:20:39;;;;;;;51.90;23.00;;;;;;;4.20;96.77;100887.55;105048;1274;72681;-74
2022/03/16 02:23:28;;;;;;;55.40;23.60;;;;;;;4.22;97.23;100888.19;105071;1273;68022;-72
2022/03/16 02:26:27;;;;;;;52.40;23.30;;;;;;;4.21;97.15;100894.18;105029;1274;71849;-73
2022/03/16 02:29:22;;;;;;;56.20;23.90;;;;;;;4.20;97.10;100897.94;104797;1274;59359;-73
2022/03/16 02:32:18;;;;;;;46.20;19.40;;;;;;;4.21;97.73;100899.11;104847;1273;59407;-73
2022/03/16 02:35:10;;;;;;;53.70;23.60;;;;;;;4.21;97.33;100907.53;104723;1274;71023;-74
2022/03/16 02:38:03;;;;;;;48.50;22.60;;;;;;;4.23;97.44;100916.06;104733;1277;67960;-74
2022/03/16 02:40:52;;;;;;;54.00;23.20;;;;;;;4.21;97.24;100921.41;104509;1277;73300;-74
2022/03/16 02:43:41;;;;;;;58.10;24.70;;;;;;;4.21;97.42;100921.41;104384;1277;59736;-73
2022/03/16 02:46:32;;;;;;;60.30;25.90;;;;;;;4.22;97.45;100924.03;104888;1277;60859;-73
2022/03/16 02:49:22;;;;;;;59.50;24.80;;;;;;;4.21;97.13;100921.60;104864;1277;72788;-73
2022/03/16 02:52:11;;;;;;;63.40;27.20;;;;;;;4.22;97.29;100926.14;104825;1277;67154;-72
2022/03/16 02:55:00;;;;;;;62.30;26.70;;;;;;;4.24;97.42;100926.61;104830;1277;71403;-72
2022/03/16 02:57:50;;;;;;;66.10;26.50;;;;;;;4.26;97.61;100931.45;104573;1277;59323;-74
2022/03/16 03:00:41;;;;;;;61.70;26.20;;;;;;;4.29;97.49;100931.16;104542;1277;60428;-74
2022/03/16 03:03:29;;;;;;;65.20;27.20;;;;;;;4.30;97.45;100933.92;104555;1277;72160;-74
2022/03/16 03:06:18;;;;;;;61.70;25.60;;;;;;;4.31;97.06;100937.58;104559;1277;67956;-74
2022/03/16 03:09:08;;;;;;;65.90;27.80;;;;;;;4.28;97.13;100937.52;104598;1274;73095;-73
2022/03/16 03:12:05;;;;;;;61.40;25.40;;;;;;;4.28;97.19;100939.61;104831;1274;59400;-74
2022/03/16 03:14:54;;;;;;;70.90;28.10;;;;;;;4.26;97.22;100943.71;104880;1274;59566;-73
2022/03/16 03:17:46;;;;;;;60.30;24.00;;;;;;;4.25;97.29;100947.44;104778;1275;71689;-74
2022/03/16 03:20:35;;;;;;;76.50;30.00;;;;;;;4.21;97.35;100946.55;104823;1274;66921;-74
2022/03/16 03:23:24;;;;;;;78.30;31.90;;;;;;;4.19;97.56;100955.92;104839;1274;72969;-74
2022/03/16 03:26:18;;;;;;;71.40;30.60;;;;;;;4.17;97.53;100957.42;104804;1274;59337;-74
2022/03/16 03:29:10;;;;;;;73.30;29.30;;;;;;;4.12;97.90;100954.08;104703;1274;60884;-74
2022/03/16 03:32:01;;;;;;;75.40;31.20;;;;;;;4.13;98.17;100963.02;104930;1274;72589;-74
2022/03/16 03:34:51;;;;;;;77.20;31.60;;;;;;;4.12;98.25;100964.63;104946;1274;67518;-74
2022/03/16 03:37:40;;;;;;;78.00;30.30;;;;;;;4.13;98.59;100967.59;105354;1274;73330;-75
2022/03/16 03:40:29;;;;;;;73.40;31.60;;;;;;;4.14;99.00;100972.45;104827;1274;60148;-75
2022/03/16 03:43:22;;;;;;;74.00;31.40;;;;;;;4.16;98.98;100970.95;104655;1274;60479;-77
2022/03/16 03:46:11;;;;;;;70.30;29.80;;;;;;;4.14;98.63;100971.74;104787;1274;72506;-73
2022/03/16 03:48:59;;;;;;;64.40;27.80;;;;;;;4.13;98.85;100973.02;104598;1274;67175;-73
2022/03/16 03:51:49;;;;;;;66.20;27.50;;;;;;;4.13;99.22;100973.91;104865;1274;71332;-74
2022/03/16 03:54:40;;;;;;;71.60;30.70;;;;;;;4.13;99.09;100977.60;104736;1274;59329;-73
2022/03/16 03:57:29;;;;;;;71.20;29.90;;;;;;;4.10;99.02;100978.73;104627;1274;59613;-73
2022/03/16 04:00:22;;;;;;;71.30;29.00;;;;;;;4.10;99.30;100979.27;104614;1275;72634;-74
2022/03/16 04:03:12;;;;;;;77.50;31.20;;;;;;;4.06;98.93;100973.06;104690;1274;67138;-72
2022/03/16 04:06:01;;;;;;;71.00;31.30;;;;;;;4.06;99.27;100975.20;104818;1275;73145;-73
2022/03/16 04:08:49;;;;;;;75.20;31.10;;;;;;;4.04;99.57;100972.97;104943;1274;60365;-73
2022/03/16 04:11:39;;;;;;;76.80;31.00;;;;;;;4.07;99.76;100973.73;104545;1275;60973;-73
2022/03/16 04:14:28;;;;;;;69.50;29.40;;;;;;;4.09;99.64;100978.58;104622;1274;72767;-72
2022/03/16 04:17:19;;;;;;;69.60;29.30;;;;;;;4.10;99.55;100981.20;104688;1275;68462;-73
2022/03/16 04:20:08;;;;;;;72.50;31.70;;;;;;;4.09;99.68;100983.00;104634;1274;72878;-73
2022/03/16 04:22:58;;;;;;;67.60;28.50;;;;;;;4.11;99.68;100984.50;104552;1275;59258;-74
2022/03/16 04:25:47;;;;;;;68.90;28.20;;;;;;;4.11;99.77;100985.74;104859;1274;59413;-73
2022/03/16 04:28:36;;;;;;;69.80;29.70;;;;;;;4.09;99.70;100985.82;104827;1277;70513;-74
2022/03/16 04:31:25;;;;;;;76.10;32.60;;;;;;;4.09;99.69;100991.23;104702;1274;68412;-75
2022/03/16 04:34:14;;;;;;;77.90;31.70;;;;;;;4.08;99.69;100990.77;104832;1274;73317;-75
2022/03/16 04:37:02;;;;;;;78.80;33.30;;;;;;;4.05;99.63;100997.00;105120;1271;59399;-75
2022/03/16 04:39:56;;;;;;;81.00;31.80;;;;;;;4.03;99.60;100996.36;104912;1272;59300;-75
2022/03/16 04:42:46;;;;;;;83.90;33.90;;;;;;;4.05;99.98;100995.63;104909;1271;73290;-74
2022/03/16 04:45:38;;;;;;;81.30;34.00;;;;;;;4.05;99.74;100994.05;104958;1271;66854;-74
2022/03/16 04:48:30;;;;;;;82.40;33.50;;;;;;;4.06;99.95;101003.28;104925;1271;72010;-74
2022/03/16 04:51:22;;;;;;;83.00;33.90;;;;;;;4.07;99.69;101010.45;105103;1270;59412;-73
2022/03/16 04:54:10;;;;;;;80.50;35.50;;;;;;;4.08;99.84;101010.40;104761;1272;60702;-73
2022/03/16 04:57:02;;;;;;;74.50;32.00;;;;;;;4.07;99.57;101013.78;104782;1276;71413;-72
2022/03/16 04:59:51;;;;;;;66.60;30.00;;;;;;;4.07;99.47;101018.19;105283;1271;68028;-74
2022/03/16 05:02:39;;;;;;;63.70;30.40;;;;;;;4.05;99.56;101023.71;104879;1271;73000;-73
2022/03/16 05:05:29;;;;;;;61.50;28.50;;;;;;;4.06;99.80;101026.48;104887;1271;59397;-73
2022/03/16 05:08:18;;;;;;;63.90;30.30;;;;;;;4.07;99.87;101023.46;104866;1271;60612;-72
2022/03/16 05:11:13;;;;;;;64.90;29.00;;;;;;;4.08;100.00;101023.42;104927;1272;70392;-72
2022/03/16 05:14:03;;;;;;;58.90;28.40;;;;;;;4.09;99.85;101025.30;104985;1271;66056;-76
2022/03/16 05:16:55;;;;;;;59.20;27.70;;;;;;;4.09;99.86;101031.11;104849;1271;72292;-72
2022/03/16 05:19:48;;;;;;;66.50;29.80;;;;;;;4.05;99.61;101032.48;104835;1278;59426;-74
2022/03/16 05:22:52;;;;;;;61.30;28.10;;;;;;;4.02;99.54;101038.38;104942;1275;59856;-74
2022/03/16 05:25:44;;;;;;;71.20;33.10;;;;;;;4.00;99.71;101034.42;104721;1274;72712;-74
2022/03/16 05:28:35;;;;;;;71.80;33.00;;;;;;;3.98;99.81;101036.94;104941;1275;68387;-75
2022/03/16 05:31:24;;;;;;;77.80;34.00;;;;;;;3.98;99.91;101034.66;104821;1274;71973;-73
2022/03/16 05:34:13;;;;;;;71.40;31.90;;;;;;;3.99;100.00;101035.84;104602;1278;59651;-73
2022/03/16 05:37:03;;;;;;;71.20;31.40;;;;;;;4.00;100.00;101031.98;104618;1275;60253;-75
2022/03/16 05:39:52;;;;;;;67.80;31.80;;;;;;;4.00;100.00;101035.48;105019;1275;72558;-77
2022/03/16 05:42:45;;;;;;;71.10;32.30;;;;;;;4.01;100.00;101037.73;104620;1274;68670;-75
2022/03/16 05:45:35;;;;;;;69.40;30.40;;;;;;;4.03;100.00;101037.99;104809;1274;71697;-76
2022/03/16 05:48:24;;;;;;;72.90;33.60;;;;;;;4.06;100.00;101045.98;104593;1279;60284;-74
2022/03/16 05:51:16;;;;;;;72.80;32.40;;;;;;;4.09;100.00;101049.56;104805;1275;60931;-74
2022/03/16 05:54:08;;;;;;;73.80;31.40;;;;;;;4.10;100.00;101047.79;104646;1274;70906;-74
2022/03/16 05:57:03;;;;;;;76.10;30.80;;;;;;;4.09;100.00;101046.41;104463;1271;1003770;-70
2022/03/16 05:59:54;;;;;;;71.90;30.40;;;;;;;4.11;100.00;101053.00;105238;1278;73559;-72
2022/03/16 06:02:48;;;;;;;70.50;32.00;;;;;;;4.11;99.95;101060.04;104623;1277;59420;-75
2022/03/16 06:05:39;;;;;;;68.60;29.80;;;;;;;4.09;99.93;101062.90;104830;1277;60459;-75
2022/03/16 06:08:31;;;;;;;78.00;31.50;;;;;;;4.07;99.85;101057.52;104678;1277;71224;-73
2022/03/16 06:11:24;;;;;;;81.30;32.90;;;;;;;4.04;99.75;101056.39;104819;1277;68243;-73
2022/03/16 06:14:13;;;;;;;78.90;33.30;;;;;;;4.04;99.79;101067.99;104586;1277;72128;-73
2022/03/16 06:17:08;;;;;;;71.20;29.60;;;;;;;4.05;99.79;101069.90;104724;1277;59287;-72
2022/03/16 06:19:57;;;;;;;73.80;32.40;;;;;;;4.05;99.84;101069.73;104657;1276;59601;-74
2022/03/16 06:22:49;;;;;;;72.60;32.70;;;;;;;4.09;100.00;101068.19;104907;1276;71239;-74
2022/03/16 06:25:42;;;;;;;69.30;30.80;;;;;;;4.19;100.00;101077.85;104645;1278;67141;-73
2022/03/16 06:28:32;;;;;;;76.20;32.80;;;;;;;4.22;99.79;101079.30;104863;1277;72889;-73
2022/03/16 06:31:21;;;;;;;73.00;30.80;;;;;;;4.24;99.50;101085.55;104757;1272;59368;-71
2022/03/16 06:34:10;;;;;;;70.70;30.20;;;;;;;4.26;99.55;101091.66;104838;1271;60072;-75
2022/03/16 06:36:59;;;;;;;65.80;28.40;;;;;;;4.28;99.66;101096.31;104897;1272;70505;-73
2022/03/16 06:39:48;;;;;;;73.00;31.30;;;;;;;4.31;99.40;101095.37;105498;1271;67889;-71
2022/03/16 06:42:58;;;;;;;67.00;28.40;;;;;;;4.32;99.51;101098.46;105256;1271;70962;-74
2022/03/16 06:45:48;;;;;;;59.80;26.00;;;;;;;4.38;99.34;101101.42;105269;1271;59304;-75
2022/03/16 06:48:37;;;;;;;59.00;25.30;;;;;;;4.38;98.56;101106.02;105106;1271;61072;-75
2022/03/16 06:51:26;;;;;;;53.30;22.40;;;;;;;4.39;98.64;101109.13;104640;1271;366674;-75
2022/03/16 06:54:14;;;;;;;50.20;22.60;;;;;;;4.39;98.36;101111.41;104857;1274;66714;-74
2022/03/16 06:57:05;;;;;;;43.40;19.50;;;;;;;4.36;98.07;101109.06;105198;1271;72703;-77
2022/03/16 07:00:17;;;;;;;37.30;16.80;;;;;;;4.39;97.78;101117.21;105153;1271;59310;-74
2022/03/16 07:03:07;;;;;;;37.10;18.40;;;;;;;4.40;97.37;101119.61;105120;1271;59407;-74
2022/03/16 07:06:02;;;;;;;36.20;17.70;;;;;;;4.47;97.69;101118.17;105131;1271;72162;-75
2022/03/16 07:08:51;;;;;;;38.10;18.40;;;;;;;4.53;97.38;101120.77;104916;1271;67017;-75
2022/03/16 07:11:47;;;;;;;39.70;18.60;;;;;;;4.60;97.12;101126.31;105022;1271;71729;-74
2022/03/16 07:14:37;;;;;;;42.70;20.30;;;;;;;4.61;96.57;101131.55;105330;1271;59342;-73
2022/03/16 07:17:25;;;;;;;47.30;20.60;;;;;;;4.62;96.56;101130.48;105110;1271;60671;-73
2022/03/16 07:20:18;;;;;;;37.60;16.60;;;;;;;4.66;96.93;101129.79;104979;1274;71371;-74
2022/03/16 07:23:13;;;;;;;50.40;22.20;;;;;;;4.67;96.69;101131.70;105196;1271;66805;-73
2022/03/16 07:26:05;;;;;;;51.00;23.50;;;;;;;4.70;96.48;101137.23;104913;1271;72970;-73
2022/03/16 07:28:56;;;;;;;50.10;21.70;;;;;;;4.74;96.93;101142.13;105146;1272;59403;-72
2022/03/16 07:31:45;;;;;;;42.50;20.00;;;;;;;4.83;96.69;101144.66;104799;1271;60452;-74
2022/03/16 07:34:34;;;;;;;34.60;18.30;;;;;;;4.90;95.85;101149.84;105024;1271;73078;-74
2022/03/16 07:37:26;;;;;;;37.60;19.40;;;;;;;4.96;95.29;101151.38;104934;1272;68843;-73
2022/03/16 07:40:15;;;;;;;42.20;20.00;;;;;;;5.06;94.71;101153.83;105129;1271;71249;-77
2022/03/16 07:43:06;;;;;;;35.60;17.60;;;;;;;5.20;94.52;101158.41;104890;1271;59402;-73
2022/03/16 07:45:56;;;;;;;37.40;20.20;;;;;;;5.34;93.95;101159.46;105169;1272;61749;-74
2022/03/16 07:48:46;;;;;;;39.80;20.10;;;;;;;5.42;92.87;101162.14;104928;1271;70752;-76
2022/03/16 07:51:36;;;;;;;38.90;20.10;;;;;;;5.47;92.62;101167.41;104998;1271;66989;-74
2022/03/16 07:54:27;;;;;;;39.50;20.30;;;;;;;5.54;92.08;101168.36;105016;1272;72435;-73
2022/03/16 07:57:17;;;;;;;36.80;18.10;;;;;;;5.60;91.83;101174.13;104282;1272;1003764;-74
2022/03/16 08:00:11;;;;;;;40.50;20.30;;;;;;;5.65;92.16;101176.05;104963;1272;60340;-76
2022/03/16 08:03:01;;;;;;;42.80;21.90;;;;;;;5.66;91.53;101172.50;104852;1271;71610;-76
2022/03/16 08:05:50;;;;;;;41.90;22.00;;;;;;;5.66;91.24;101177.59;104934;1271;68405;-73
2022/03/16 08:08:39;;;;;;;37.60;20.40;;;;;;;5.69;91.46;101181.33;104959;1271;73364;-74
2022/03/16 08:11:28;;;;;;;36.40;19.80;;;;;;;5.76;90.84;101177.69;104864;1271;59328;-74
2022/03/16 08:14:19;;;;;;;36.70;18.90;;;;;;;5.91;90.68;101184.67;104889;1272;60723;-74
2022/03/16 08:17:11;;;;;;;31.00;17.20;;;;;;;6.10;90.36;101194.52;105046;1271;71513;-73
2022/03/16 08:20:00;;;;;;;36.70;19.00;;;;;;;6.25;89.19;101200.61;105044;1271;67639;-74
2022/03/16 08:22:54;;;;;;;35.30;18.50;;;;;;;6.29;88.60;101200.96;104791;1271;72965;-74
2022/03/16 08:26:02;;;;;;;30.90;16.70;;;;;;;6.30;88.10;101204.98;105161;1272;59369;-74
2022/03/16 08:28:51;;;;;;;32.10;17.70;;;;;;;6.36;88.02;101211.06;105081;1271;60614;-73
2022/03/16 08:31:39;;;;;;;34.20;18.90;;;;;;;6.33;87.46;101214.39;104889;1271;70992;-74
2022/03/16 08:34:28;;;;;;;33.70;18.40;;;;;;;6.28;87.58;101220.05;105106;1272;67077;-73
2022/03/16 08:37:18;;;;;;;27.40;16.00;;;;;;;6.20;87.16;101222.15;104656;1272;73112;-75
2022/03/16 08:40:08;;;;;;;29.60;16.40;;;;;;;6.08;86.77;101221.94;105209;1271;59369;-74
2022/03/16 08:42:59;;;;;;;36.30;19.10;;;;;;;5.93;87.24;101222.30;104956;1271;60696;-73
2022/03/16 08:45:49;;;;;;;37.20;18.70;;;;;;;5.85;87.72;101230.56;105062;1271;72963;-74
2022/03/16 08:48:39;;;;;;;42.20;21.20;;;;;;;5.74;87.76;101230.80;104982;1271;67253;-74
2022/03/16 08:51:29;;;;;;;42.30;22.00;;;;;;;5.57;87.60;101231.98;105063;1271;72732;-73
2022/03/16 08:54:21;;;;;;;37.10;19.30;;;;;;;5.45;88.03;101239.83;104986;1271;59411;-75
2022/03/16 08:57:14;;;;;;;34.40;18.40;;;;;;;5.34;88.14;101242.34;105196;1271;59597;-74
2022/03/16 09:00:04;;;;;;;38.10;20.10;;;;;;;5.27;88.69;101247.86;104944;1271;72109;-75
2022/03/16 09:02:52;;;;;;;38.70;19.40;;;;;;;5.25;89.12;101258.70;104904;1273;67809;-73
2022/03/16 09:05:41;;;;;;;48.70;21.70;;;;;;;5.21;88.85;101267.63;105198;1271;73145;-73
2022/03/16 09:08:31;;;;;;;47.00;22.80;;;;;;;5.17;89.13;101273.08;104934;1271;59275;-73
2022/03/16 09:11:20;;;;;;;47.80;22.60;;;;;;;5.06;89.19;101275.72;105042;1271;60635;-73
2022/03/16 09:14:10;;;;;;;44.40;21.60;;;;;;;4.99;89.38;101276.86;105152;1271;72982;-75
2022/03/16 09:16:59;;;;;;;41.90;20.90;;;;;;;4.92;89.68;101272.89;105134;1273;68760;-73
2022/03/16 09:19:48;;;;;;;43.90;21.50;;;;;;;4.84;90.22;101272.97;104915;1271;72694;-73
2022/03/16 09:22:38;;;;;;;43.50;21.00;;;;;;;4.82;90.56;101270.61;105284;1271;59850;-75
2022/03/16 09:25:27;;;;;;;40.60;20.90;;;;;;;4.77;90.55;101275.85;105027;1271;60530;-74
2022/03/16 09:28:16;;;;;;;42.50;20.60;;;;;;;4.76;91.23;101277.65;104948;1271;71713;-75
2022/03/16 09:31:09;;;;;;;30.80;15.70;;;;;;;4.74;91.07;101280.88;104961;1271;65854;-76
2022/03/16 09:33:58;;;;;;;31.70;16.60;;;;;;;4.71;91.49;101284.67;104763;1271;71862;-76
2022/03/16 09:36:48;;;;;;;31.80;16.40;;;;;;;4.71;91.51;101287.99;104842;1271;59515;-74
2022/03/16 09:39:37;;;;;;;35.10;18.60;;;;;;;4.69;91.59;101283.34;104783;1273;59707;-76
2022/03/16 09:42:29;;;;;;;36.90;19.10;;;;;;;4.71;91.80;101282.73;104816;1274;73200;-75
2022/03/16 09:45:21;;;;;;;34.90;18.40;;;;;;;4.75;91.81;101286.10;104779;1273;66748;-76
2022/03/16 09:48:11;;;;;;;35.90;19.10;;;;;;;4.84;92.13;101286.17;105130;1273;71448;-75
2022/03/16 09:51:03;;;;;;;34.80;17.10;;;;;;;4.95;92.22;101289.31;104678;1273;59432;-75
2022/03/16 09:53:53;;;;;;;35.80;18.90;;;;;;;5.07;91.75;101285.56;104906;1273;60598;-75
2022/03/16 09:56:43;;;;;;;33.60;16.90;;;;;;;5.14;91.34;101291.98;105109;1273;71218;-76
2022/03/16 09:59:32;;;;;;;25.30;13.80;;;;;;;5.22;91.22;101299.80;104893;1273;65829;-74
2022/03/16 10:02:21;;;;;;;28.00;15.50;;;;;;;5.25;90.28;101305.33;104763;1274;72789;-76
2022/03/16 10:05:11;;;;;;;32.50;16.30;;;;;;;5.26;90.30;101308.45;105080;1273;59425;-75
2022/03/16 10:08:02;;;;;;;36.40;18.70;;;;;;;5.28;89.72;101314.17;105245;1273;60530;-75
2022/03/16 10:14:18;;;;;;;35.00;19.60;;;;;;;5.39;88.87;101303.42;105096;1273;65568;-76
2022/03/16 10:20:28;;;;;;;38.10;19.80;;;;;;;5.52;87.71;101310.53;104973;1273;59373;-76
2022/03/16 10:23:28;;;;;;;33.00;17.60;;;;;;;5.60;87.14;101316.38;105089;1274;59464;-76
2022/03/16 10:26:22;;;;;;;34.50;17.80;;;;;;;5.62;85.69;101318.95;104914;1273;72980;-73
2022/03/16 10:29:11;;;;;;;34.60;17.40;;;;;;;5.68;85.28;101316.45;104966;1273;68505;-74
2022/03/16 10:32:03;;;;;;;34.10;18.40;;;;;;;5.74;84.89;101312.86;104756;1274;71210;-75
2022/03/16 10:35:05;;;;;;;37.60;19.10;;;;;;;5.87;83.98;101317.86;104892;1274;59604;-75
2022/03/16 10:38:12;;;;;;;34.90;18.20;;;;;;;5.97;83.08;101315.55;104919;1271;60244;-75
2022/03/16 10:41:13;;;;;;;31.40;16.50;;;;;;;6.06;82.52;101315.02;105443;1271;72348;-75
2022/03/16 10:47:52;;;;;;;36.60;18.50;;;;;;;6.27;81.04;101323.02;104972;1271;72201;-75
2022/03/16 10:50:50;;;;;;;33.70;17.70;;;;;;;6.34;80.54;101325.38;105299;1271;59337;-74
2022/03/16 10:53:45;;;;;;;38.70;19.70;;;;;;;6.29;79.60;101329.66;105085;1271;59426;-74
2022/03/16 10:56:35;;;;;;;34.40;18.70;;;;;;;6.19;79.76;101330.95;104900;1271;71477;-75
2022/03/16 10:59:31;;;;;;;38.40;20.10;;;;;;;6.10;80.11;101329.30;105245;1271;68327;-74
2022/03/16 11:02:24;;;;;;;35.50;18.40;;;;;;;6.09;79.92;101324.08;104912;1271;73130;-75
2022/03/16 11:05:18;;;;;;;38.60;19.90;;;;;;;6.11;79.33;101322.75;105166;1271;59308;-73
2022/03/16 11:08:12;;;;;;;38.40;19.90;;;;;;;6.17;79.36;101320.97;105113;1271;60344;-76
2022/03/16 11:14:15;;;;;;;36.50;18.50;;;;;;;6.27;78.02;101319.47;105285;1271;67031;-75
2022/03/16 11:17:10;;;;;;;38.60;20.20;;;;;;;6.31;78.21;101326.03;104957;1271;72008;-75
2022/03/16 11:20:02;;;;;;;38.90;20.60;;;;;;;6.36;78.14;101325.84;104937;1271;59334;-74
2022/03/16 11:26:34;;;;;;;37.30;20.20;;;;;;;6.39;77.77;101328.55;105054;1270;72196;-75
2022/03/16 11:30:07;;;;;;;33.20;17.20;;;;;;;6.38;77.01;101329.30;105276;1271;67133;-75
2022/03/16 11:33:02;;;;;;;42.70;21.80;;;;;;;6.28;76.76;101331.44;105012;1271;71954;-74
2022/03/16 11:35:55;;;;;;;44.20;21.00;;;;;;;6.31;76.17;101334.68;105266;1271;59308;-74
2022/03/16 11:38:51;;;;;;;44.20;19.30;;;;;;;6.35;75.80;101329.23;105094;1271;60487;-74
2022/03/16 11:41:56;;;;;;;32.60;16.20;;;;;;;6.42;76.15;101326.85;105055;1271;73132;-75
2022/03/16 11:44:46;;;;;;;36.60;18.50;;;;;;;6.57;76.08;101324.98;105143;1271;67451;-74
2022/03/16 11:47:44;;;;;;;38.90;18.90;;;;;;;6.83;75.36;101324.11;104964;1271;71547;-74
2022/03/16 11:50:35;;;;;;;42.10;20.90;;;;;;;7.07;74.40;101328.58;103353;1271;1003708;-75
2022/03/16 11:53:28;;;;;;;37.00;20.10;;;;;;;7.10;73.25;101335.48;105049;1271;59433;-75
2022/03/16 11:56:20;;;;;;;40.40;21.20;;;;;;;7.09;73.26;101337.48;105206;1271;72574;-74
2022/03/16 11:59:23;;;;;;;39.30;22.00;;;;;;;7.04;73.42;101337.18;105108;1271;66711;-74
2022/03/16 12:02:22;;;;;;;40.80;22.20;;;;;;;6.94;73.45;101324.34;105593;1271;73103;-78
2022/03/16 12:05:15;;;;;;;40.20;21.80;;;;;;;6.94;74.01;101331.58;104997;1271;59430;-75
2022/03/16 12:08:14;;;;;;;37.00;21.00;;;;;;;6.96;73.47;101335.36;104983;1271;59328;-75
2022/03/16 12:14:19;;;;;;;35.90;19.50;;;;;;;7.21;73.30;101323.91;105204;1271;68236;-74
2022/03/16 12:17:19;;;;;;;40.60;21.40;;;;;;;7.41;72.83;101328.67;105217;1271;73127;-76
2022/03/16 12:20:28;;;;;;;37.00;20.70;;;;;;;7.53;71.56;101328.66;105144;1271;59409;-75
2022/03/16 12:25:08;;;;;;;37.40;20.30;;;;;;;7.67;70.90;101329.32;105256;1271;59192;-76
2022/03/16 12:30:25;;;;;;;38.00;19.40;;;;;;;7.66;70.36;101333.56;103775;1271;1002952;-76
2022/03/16 12:33:26;;;;;;;36.70;19.00;;;;;;;7.72;70.45;101334.73;105530;1271;72805;-76
2022/03/16 12:36:25;;;;;;;34.10;18.70;;;;;;;7.69;70.35;101339.27;105741;1271;59366;-76
2022/03/16 12:39:14;;;;;;;36.70;19.40;;;;;;;7.62;69.89;101337.98;105483;1271;61163;-77
2022/03/16 12:45:12;;;;;;;38.40;20.20;;;;;;;7.58;70.35;101339.39;105372;1271;68090;-76
2022/03/16 12:48:12;;;;;;;34.10;20.30;;;;;;;7.55;70.58;101340.27;105357;1271;72865;-74
2022/03/16 12:51:04;;;;;;;35.00;20.60;;;;;;;7.46;69.79;101346.13;105384;1271;59339;-73
2022/03/16 12:53:58;;;;;;;34.00;19.20;;;;;;;7.33;70.13;101348.29;105109;1274;59307;-75
2022/03/16 12:56:53;;;;;;;35.90;20.30;;;;;;;7.33;70.00;101351.99;105125;1271;72272;-74
2022/03/16 12:59:52;;;;;;;35.60;19.80;;;;;;;7.23;69.43;101354.54;105068;1271;67549;-74
2022/03/16 13:02:42;;;;;;;33.80;19.40;;;;;;;7.18;69.99;101355.82;105128;1271;72820;-73
2022/03/16 13:05:35;;;;;;;37.40;21.30;;;;;;;7.20;70.79;101356.96;105077;1271;59212;-72
2022/03/16 13:08:27;;;;;;;35.70;20.80;;;;;;;7.27;70.30;101354.53;105211;1271;60668;-74
2022/03/16 13:11:24;;;;;;;33.10;19.50;;;;;;;7.33;70.07;101355.88;105274;1271;70779;-74
2022/03/16 13:14:16;;;;;;;35.10;19.80;;;;;;;7.46;70.11;101360.59;105007;1272;68285;-74
2022/03/16 13:17:07;;;;;;;39.70;21.60;;;;;;;7.51;69.48;101359.50;104976;1271;72855;-74
2022/03/16 13:19:58;;;;;;;38.90;21.40;;;;;;;7.54;69.38;101360.08;105148;1271;59278;-74
2022/03/16 13:23:01;;;;;;;39.00;22.60;;;;;;;7.59;69.59;101363.40;104385;1271;1003142;-74
2022/03/16 13:26:07;;;;;;;38.70;21.90;;;;;;;7.63;69.48;101365.53;105198;1271;72821;-72
2022/03/16 13:29:10;;;;;;;39.90;23.00;;;;;;;7.61;69.60;101362.59;105013;1274;68253;-75